createdAt,value
2023-04-17T00:01:09.747Z,7.60
2023-04-17T00:03:37.984Z,8.00
2023-04-17T00:06:05.439Z,7.50
2023-04-17T00:08:33.926Z,8.00
2023-04-17T00:11:07.584Z,7.90
2023-04-17T00:13:35.561Z,7.80
2023-04-17T00:16:02.486Z,7.60
2023-04-17T00:18:29.413Z,7.50
2023-04-17T00:20:56.842Z,8.00
2023-04-17T00:23:23.785Z,7.80
2023-04-17T00:25:50.498Z,7.60
2023-04-17T00:28:17.241Z,7.90
2023-04-17T00:30:43.909Z,7.90
2023-04-17T00:33:10.566Z,7.90
2023-04-17T00:35:37.250Z,7.90
2023-04-17T00:38:03.978Z,7.90
2023-04-17T00:40:30.829Z,7.90
2023-04-17T00:43:01.100Z,8.10
2023-04-17T00:45:27.906Z,8.00
2023-04-17T00:47:55.440Z,7.90
2023-04-17T00:50:22.605Z,9.20
2023-04-17T00:52:49.676Z,8.40
2023-04-17T00:55:16.506Z,8.50
2023-04-17T00:57:43.786Z,7.90
2023-04-17T01:00:11.304Z,7.90
2023-04-17T01:02:38.174Z,8.00
2023-04-17T01:05:05.045Z,7.80
2023-04-17T01:07:31.623Z,8.00
2023-04-17T01:09:59.084Z,8.00
2023-04-17T01:12:25.917Z,8.10
2023-04-17T01:14:53.246Z,7.70
2023-04-17T01:17:20.440Z,7.60
2023-04-17T01:19:47.823Z,7.80
2023-04-17T01:22:16.449Z,7.70
2023-04-17T01:24:43.195Z,7.80
2023-04-17T01:27:09.853Z,7.90
2023-04-17T01:29:36.570Z,7.80
2023-04-17T01:32:03.333Z,7.80
2023-04-17T01:34:29.962Z,8.00
2023-04-17T01:36:56.586Z,7.80
2023-04-17T01:39:23.554Z,7.90
2023-04-17T01:41:51.459Z,8.80
2023-04-17T01:44:18.404Z,7.80
2023-04-17T01:46:45.270Z,7.80
2023-04-17T01:49:12.114Z,7.40
2023-04-17T01:51:38.929Z,7.90
2023-04-17T01:54:05.792Z,7.70
2023-04-17T01:56:32.372Z,7.90
2023-04-17T01:58:59.044Z,7.80
2023-04-17T02:01:25.785Z,7.80
2023-04-17T02:03:52.699Z,7.90
2023-04-17T02:06:19.409Z,8.70
2023-04-17T02:08:46.041Z,7.70
2023-04-17T02:11:13.576Z,7.80
2023-04-17T02:13:40.213Z,7.90
2023-04-17T02:16:07.585Z,7.80
2023-04-17T02:18:34.214Z,7.90
2023-04-17T02:21:00.876Z,7.80
2023-04-17T02:23:27.574Z,7.70
2023-04-17T02:25:54.200Z,8.80
2023-04-17T02:28:20.872Z,7.80
2023-04-17T02:30:47.561Z,7.50
2023-04-17T02:33:14.279Z,7.80
2023-04-17T02:35:41.527Z,7.80
2023-04-17T02:38:08.188Z,7.80
2023-04-17T02:40:34.805Z,7.80
2023-04-17T02:43:01.483Z,7.30
2023-04-17T02:45:28.097Z,7.80
2023-04-17T02:47:54.903Z,7.90
2023-04-17T02:50:21.608Z,7.70
2023-04-17T02:52:48.257Z,7.60
2023-04-17T02:55:14.971Z,7.40
2023-04-17T02:57:41.664Z,7.80
2023-04-17T03:00:08.511Z,7.80
2023-04-17T03:02:36.390Z,7.80
2023-04-17T03:05:04.349Z,7.70
2023-04-17T03:07:31.071Z,7.90
2023-04-17T03:09:57.741Z,7.80
2023-04-17T03:12:24.404Z,7.70
2023-04-17T03:14:51.088Z,8.40
2023-04-17T03:17:18.031Z,7.60
2023-04-17T03:19:44.723Z,7.50
2023-04-17T03:22:13.268Z,7.80
2023-04-17T03:24:41.268Z,7.40
2023-04-17T03:27:08.011Z,8.40
2023-04-17T03:29:34.755Z,8.20
2023-04-17T03:32:01.478Z,7.60
2023-04-17T03:34:29.183Z,7.80
2023-04-17T03:36:55.927Z,7.70
2023-04-17T03:39:22.671Z,7.80
2023-04-17T03:41:49.285Z,7.70
2023-04-17T03:44:17.368Z,7.50
2023-04-17T03:46:44.097Z,7.70
2023-04-17T03:49:10.924Z,8.60
2023-04-17T03:51:37.702Z,7.60
2023-04-17T03:54:04.373Z,7.80
2023-04-17T03:56:32.205Z,7.70
2023-04-17T03:58:59.212Z,7.70
2023-04-17T04:01:28.296Z,9.00
2023-04-17T04:03:55.397Z,7.70
2023-04-17T04:06:22.526Z,7.60
2023-04-17T04:08:49.473Z,7.60
2023-04-17T04:11:16.417Z,8.50
2023-04-17T04:13:43.073Z,7.50
2023-04-17T04:16:09.828Z,7.70
2023-04-17T04:18:37.055Z,7.80
2023-04-17T04:21:03.916Z,7.80
2023-04-17T04:23:30.751Z,7.90
2023-04-17T04:25:58.099Z,7.70
2023-04-17T04:28:24.784Z,7.70
2023-04-17T04:30:53.662Z,7.90
2023-04-17T04:33:21.660Z,7.90
2023-04-17T04:35:48.626Z,8.90
2023-04-17T04:38:17.749Z,7.90
2023-04-17T04:40:52.240Z,7.70
2023-04-17T04:43:21.616Z,7.70
2023-04-17T04:45:49.048Z,8.90
2023-04-17T04:48:15.722Z,7.80
2023-04-17T04:50:42.388Z,7.60
2023-04-17T04:53:09.015Z,7.70
2023-04-17T04:55:35.685Z,7.80
2023-04-17T04:58:02.316Z,7.70
2023-04-17T05:00:29.083Z,7.60
2023-04-17T05:02:55.902Z,7.90
2023-04-17T05:05:22.706Z,7.90
2023-04-17T05:07:49.417Z,7.90
2023-04-17T05:10:16.302Z,7.70
2023-04-17T05:12:43.265Z,7.90
2023-04-17T05:15:10.389Z,7.60
2023-04-17T05:17:37.731Z,7.90
2023-04-17T05:20:07.002Z,7.90
2023-04-17T05:22:33.684Z,7.90
2023-04-17T05:25:00.341Z,7.90
2023-04-17T05:27:27.058Z,7.90
2023-04-17T05:29:53.832Z,7.70
2023-04-17T05:32:20.593Z,7.70
2023-04-17T05:34:47.297Z,8.00
2023-04-17T05:37:14.120Z,7.90
2023-04-17T05:39:41.041Z,8.00
2023-04-17T05:42:07.771Z,8.10
2023-04-17T05:44:34.482Z,7.90
2023-04-17T05:47:01.163Z,8.10
2023-04-17T05:49:27.807Z,9.10
2023-04-17T05:51:54.600Z,8.70
2023-04-17T05:54:21.302Z,7.40
2023-04-17T05:56:49.095Z,8.20
2023-04-17T05:59:16.061Z,8.20
2023-04-17T06:01:43.687Z,8.10
2023-04-17T06:04:10.818Z,8.20
2023-04-17T06:06:37.699Z,7.80
2023-04-17T06:09:05.840Z,8.00
2023-04-17T06:11:32.608Z,7.80
2023-04-17T06:16:26.639Z,8.60
2023-04-17T06:18:53.393Z,8.60
2023-04-17T06:23:48.157Z,8.80
2023-04-17T06:26:14.889Z,7.90
2023-04-17T06:28:41.524Z,8.70
2023-04-17T06:31:08.283Z,8.50
2023-04-17T06:33:35.008Z,8.70
2023-04-17T06:36:02.755Z,8.80
2023-04-17T06:38:29.438Z,8.90
2023-04-17T06:40:56.328Z,8.90
2023-04-17T06:43:23.011Z,8.80
2023-04-17T06:45:49.688Z,8.80
2023-04-17T06:48:16.347Z,9.10
2023-04-17T06:50:42.977Z,9.10
2023-04-17T06:53:09.704Z,9.00
2023-04-17T06:55:36.466Z,9.30
2023-04-17T06:58:03.142Z,9.10
2023-04-17T07:00:29.812Z,9.10
2023-04-17T07:02:56.697Z,9.20
2023-04-17T07:05:23.489Z,9.70
2023-04-17T07:07:50.172Z,10.20
2023-04-17T07:10:19.381Z,9.10
2023-04-17T07:12:46.275Z,9.60
2023-04-17T07:15:13.016Z,9.70
2023-04-17T07:17:39.741Z,10.80
2023-04-17T07:20:07.278Z,9.90
2023-04-17T07:22:37.026Z,10.20
2023-04-17T07:25:04.666Z,10.20
2023-04-17T07:29:58.448Z,10.40
2023-04-17T07:32:25.186Z,10.50
2023-04-17T07:34:52.138Z,10.40
2023-04-17T07:37:18.947Z,9.70
2023-04-17T07:39:48.136Z,10.60
2023-04-17T07:42:14.987Z,10.50
2023-04-17T07:44:41.845Z,10.50
2023-04-17T07:47:08.586Z,10.80
2023-04-17T07:49:35.429Z,10.70
2023-04-17T07:52:02.203Z,10.80
2023-04-17T07:54:28.827Z,11.00
2023-04-17T07:56:58.364Z,10.70
2023-04-17T07:59:25.033Z,10.70
2023-04-17T08:01:52.691Z,10.90
2023-04-17T08:04:19.571Z,11.10
2023-04-17T08:06:46.401Z,12.00
2023-04-17T08:09:15.419Z,11.20
2023-04-17T08:11:56.195Z,11.00
2023-04-17T08:14:24.243Z,11.70
2023-04-17T08:16:51.093Z,12.70
2023-04-17T08:19:17.772Z,12.50
2023-04-17T08:21:44.645Z,12.30
2023-04-17T08:24:11.384Z,13.20
2023-04-17T08:26:38.042Z,13.60
2023-04-17T08:29:04.697Z,13.10
2023-04-17T08:31:31.735Z,12.80
2023-04-17T08:34:10.886Z,13.10
2023-04-17T08:36:40.351Z,12.70
2023-04-17T08:39:17.422Z,11.90
2023-04-17T08:41:49.696Z,11.80
2023-04-17T08:44:19.271Z,11.60
2023-04-17T08:46:46.538Z,11.50
2023-04-17T08:49:13.446Z,11.50
2023-04-17T08:51:42.616Z,11.50
2023-04-17T08:54:09.326Z,12.10
2023-04-17T08:56:36.226Z,11.10
2023-04-17T08:59:02.912Z,11.00
2023-04-17T09:01:30.139Z,10.60
2023-04-17T09:03:59.918Z,11.00
2023-04-17T09:06:27.528Z,10.70
2023-04-17T09:08:58.526Z,9.80
2023-04-17T09:11:25.311Z,10.70
2023-04-17T09:13:52.023Z,10.60
2023-04-17T09:16:21.995Z,10.60
2023-04-17T09:18:49.422Z,10.40
2023-04-17T09:21:18.686Z,10.50
2023-04-17T09:23:50.107Z,10.60
2023-04-17T09:26:18.461Z,10.50
2023-04-17T09:29:04.011Z,10.50
2023-04-17T09:31:32.334Z,10.40
2023-04-17T09:34:00.595Z,10.40
2023-04-17T09:36:30.467Z,10.40
2023-04-17T09:38:59.510Z,10.50
2023-04-17T09:41:30.439Z,10.30
2023-04-17T09:44:02.094Z,10.50
2023-04-17T09:46:32.779Z,10.70
2023-04-17T09:49:07.910Z,10.70
2023-04-17T09:51:34.581Z,10.80
2023-04-17T09:54:05.493Z,10.60
2023-04-17T09:56:33.845Z,10.90
2023-04-17T09:59:02.694Z,10.90
2023-04-17T10:01:30.574Z,10.90
2023-04-17T10:03:58.133Z,11.60
2023-04-17T10:06:26.770Z,10.90
2023-04-17T10:08:53.918Z,10.50
2023-04-17T10:11:22.404Z,10.60
2023-04-17T10:13:52.900Z,10.70
2023-04-17T10:16:19.649Z,12.00
2023-04-17T10:18:46.353Z,10.30
2023-04-17T10:21:25.964Z,10.80
2023-04-17T10:23:53.140Z,11.10
2023-04-17T10:26:24.469Z,11.60
2023-04-17T10:28:54.760Z,11.30
2023-04-17T10:31:23.248Z,12.20
2023-04-17T10:34:05.653Z,11.60
2023-04-17T10:36:40.814Z,11.30
2023-04-17T10:39:14.449Z,11.30
2023-04-17T10:42:01.590Z,11.50
2023-04-17T10:44:32.702Z,11.20
2023-04-17T10:47:07.958Z,11.40
2023-04-17T10:49:51.061Z,11.50
2023-04-17T10:52:33.214Z,11.40
2023-04-17T10:55:18.142Z,11.20
2023-04-17T10:57:58.713Z,11.30
2023-04-17T11:00:36.809Z,11.30
2023-04-17T11:03:04.727Z,11.30
2023-04-17T11:05:31.884Z,11.40
2023-04-17T11:07:59.154Z,11.60
2023-04-17T11:10:28.059Z,11.20
2023-04-17T11:12:57.812Z,11.10
2023-04-17T11:15:28.592Z,10.70
2023-04-17T11:17:56.166Z,10.90
2023-04-17T11:20:24.325Z,10.40
2023-04-17T11:22:51.331Z,10.60
2023-04-17T11:25:22.378Z,11.70
2023-04-17T11:27:52.898Z,11.10
2023-04-17T11:30:28.961Z,11.20
2023-04-17T11:32:57.764Z,11.10
2023-04-17T11:35:28.564Z,11.60
2023-04-17T11:38:14.539Z,11.50
2023-04-17T11:40:45.555Z,11.00
2023-04-17T11:43:12.821Z,11.10
2023-04-17T11:45:40.593Z,11.10
2023-04-17T11:48:08.790Z,11.20
2023-04-17T11:50:35.988Z,11.10
2023-04-17T11:53:03.466Z,11.60
2023-04-17T11:55:34.436Z,11.90
2023-04-17T11:58:02.249Z,10.90
2023-04-17T12:00:32.032Z,12.40
2023-04-17T12:02:59.960Z,12.00
2023-04-17T12:05:27.604Z,11.70
2023-04-17T12:08:02.120Z,11.80
2023-04-17T12:10:38.966Z,12.10
2023-04-17T12:13:05.911Z,12.10
2023-04-17T12:15:32.738Z,12.10
2023-04-17T12:17:59.615Z,11.60
2023-04-17T12:20:26.861Z,11.90
2023-04-17T12:22:53.676Z,11.90
2023-04-17T12:25:20.322Z,11.80
2023-04-17T12:27:49.227Z,12.00
2023-04-17T12:30:16.546Z,11.80
2023-04-17T12:32:48.576Z,11.70
2023-04-17T12:35:19.166Z,11.70
2023-04-17T12:37:48.585Z,11.60
2023-04-17T12:40:16.902Z,11.60
2023-04-17T12:42:49.226Z,11.60
2023-04-17T12:45:16.588Z,11.90
2023-04-17T12:47:43.843Z,11.90
2023-04-17T12:50:11.883Z,12.20
2023-04-17T12:52:39.096Z,11.90
2023-04-17T12:55:07.479Z,12.00
2023-04-17T12:57:37.663Z,12.20
2023-04-17T13:00:06.567Z,12.70
2023-04-17T13:02:33.408Z,12.70
2023-04-17T13:05:00.345Z,12.60
2023-04-17T13:07:27.289Z,12.30
2023-04-17T13:09:53.960Z,11.90
2023-04-17T13:12:20.601Z,12.90
2023-04-17T13:14:47.258Z,12.10
2023-04-17T13:17:15.209Z,12.30
2023-04-17T13:19:43.771Z,12.40
2023-04-17T13:22:11.047Z,12.50
2023-04-17T13:24:37.922Z,12.40
2023-04-17T13:27:04.694Z,12.30
2023-04-17T13:29:31.566Z,12.90
2023-04-17T13:31:58.262Z,11.70
2023-04-17T13:34:24.943Z,11.90
2023-04-17T13:36:51.671Z,11.90
2023-04-17T13:39:18.348Z,12.00
2023-04-17T13:41:44.981Z,12.10
2023-04-17T13:44:12.481Z,12.10
2023-04-17T13:46:39.384Z,11.90
2023-04-17T13:49:06.084Z,12.30
2023-04-17T13:51:32.807Z,12.30
2023-04-17T13:53:59.457Z,12.40
2023-04-17T13:56:29.293Z,11.20
2023-04-17T13:58:56.042Z,11.30
2023-04-17T14:01:22.833Z,11.10
2023-04-17T14:03:49.644Z,11.10
2023-04-17T14:06:19.307Z,12.60
2023-04-17T14:08:46.219Z,11.60
2023-04-17T14:11:13.094Z,12.50
2023-04-17T14:13:40.039Z,11.40
2023-04-17T14:16:06.854Z,11.70
2023-04-17T14:18:33.592Z,11.60
2023-04-17T14:21:00.256Z,11.40
2023-04-17T14:23:27.004Z,11.30
2023-04-17T14:25:53.667Z,11.20
2023-04-17T14:28:21.359Z,11.20
2023-04-17T14:30:48.498Z,11.10
2023-04-17T14:33:15.174Z,11.50
2023-04-17T14:35:41.996Z,10.90
2023-04-17T14:38:08.828Z,11.30
2023-04-17T14:40:35.559Z,11.30
2023-04-17T14:43:02.284Z,12.30
2023-04-17T14:45:29.057Z,11.10
2023-04-17T14:47:55.778Z,11.10
2023-04-17T14:50:22.483Z,10.80
2023-04-17T14:52:49.193Z,10.90
2023-04-17T14:55:15.859Z,10.90
2023-04-17T14:57:42.530Z,10.90
2023-04-17T15:00:09.435Z,10.80
2023-04-17T15:02:39.120Z,11.00
2023-04-17T15:05:06.474Z,10.60
2023-04-17T15:12:27.507Z,10.40
2023-04-17T15:14:55.256Z,10.00
2023-04-17T15:17:22.075Z,10.00
2023-04-17T15:19:48.750Z,11.00
2023-04-17T15:22:15.423Z,10.00
2023-04-17T15:24:42.115Z,10.90
2023-04-17T15:27:09.150Z,9.60
2023-04-17T15:29:35.897Z,10.80
2023-04-17T15:32:02.750Z,10.90
2023-04-17T15:34:29.405Z,9.90
2023-04-17T15:36:56.067Z,9.90
2023-04-17T15:39:23.487Z,10.00
2023-04-17T15:41:50.674Z,9.90
2023-04-17T15:44:17.304Z,9.70
2023-04-17T15:46:43.989Z,9.80
2023-04-17T15:49:10.900Z,9.50
2023-04-17T15:51:39.011Z,9.60
2023-04-17T15:54:06.866Z,9.60
2023-04-17T15:56:33.478Z,11.00
2023-04-17T15:59:00.125Z,9.60
2023-04-17T16:01:26.768Z,9.50
2023-04-17T16:03:53.721Z,9.90
2023-04-17T16:06:20.558Z,9.50
2023-04-17T16:08:47.384Z,9.80
2023-04-17T16:11:14.071Z,9.80
2023-04-17T16:13:40.704Z,9.20
2023-04-17T16:16:07.460Z,9.90
2023-04-17T16:18:34.150Z,9.90
2023-04-17T16:21:00.733Z,9.80
2023-04-17T16:23:27.514Z,9.70
2023-04-17T16:25:55.276Z,9.80
2023-04-17T16:28:21.977Z,9.70
2023-04-17T16:30:49.130Z,9.70
2023-04-17T16:33:15.935Z,9.30
2023-04-17T16:35:42.596Z,11.00
2023-04-17T16:38:09.277Z,9.50
2023-04-17T16:40:35.931Z,9.50
2023-04-17T16:43:02.574Z,10.70
2023-04-17T16:45:29.214Z,10.60
2023-04-17T16:47:55.922Z,9.30
2023-04-17T16:50:24.352Z,9.60
2023-04-17T16:52:52.268Z,9.70
2023-04-17T16:55:18.921Z,9.70
2023-04-17T16:57:48.592Z,9.70
2023-04-17T17:00:15.310Z,9.70
2023-04-17T17:02:42.127Z,9.60
2023-04-17T17:05:09.183Z,9.30
2023-04-17T17:07:35.879Z,9.70
2023-04-17T17:10:02.636Z,9.40
2023-04-17T17:12:29.282Z,9.30
2023-04-17T17:14:55.898Z,9.20
2023-04-17T17:17:22.505Z,9.20
2023-04-17T17:19:49.172Z,9.40
2023-04-17T17:22:16.911Z,9.30
2023-04-17T17:24:43.605Z,10.70
2023-04-17T17:27:10.552Z,9.50
2023-04-17T17:29:37.141Z,10.40
2023-04-17T17:32:03.932Z,10.30
2023-04-17T17:34:30.704Z,9.40
2023-04-17T17:36:57.287Z,9.60
2023-04-17T17:39:23.924Z,9.40
2023-04-17T17:41:50.544Z,9.20
2023-04-17T17:44:17.679Z,9.20
2023-04-17T17:46:44.534Z,9.20
2023-04-17T17:49:11.154Z,9.30
2023-04-17T17:51:38.052Z,9.40
2023-04-17T17:54:04.702Z,9.80
2023-04-17T17:56:32.145Z,10.20
2023-04-17T17:58:58.805Z,9.30
2023-04-17T18:01:25.543Z,9.10
2023-04-17T18:03:53.345Z,9.90
2023-04-17T18:06:20.380Z,9.20
2023-04-17T18:08:47.065Z,9.10
2023-04-17T18:11:13.850Z,9.50
2023-04-17T18:13:40.613Z,9.10
2023-04-17T18:16:07.455Z,9.10
2023-04-17T18:18:34.158Z,9.10
2023-04-17T18:21:05.295Z,9.00
2023-04-17T18:23:31.971Z,9.00
2023-04-17T18:25:59.098Z,8.90
2023-04-17T18:28:26.145Z,9.60
2023-04-17T18:30:52.835Z,9.10
2023-04-17T18:33:19.631Z,8.90
2023-04-17T18:35:46.358Z,8.90
2023-04-17T18:38:12.984Z,8.90
2023-04-17T18:40:39.660Z,8.80
2023-04-17T18:43:06.301Z,8.90
2023-04-17T18:45:32.944Z,8.80
2023-04-17T18:47:59.652Z,8.80
2023-04-17T18:50:27.510Z,8.70
2023-04-17T18:52:54.158Z,8.70
2023-04-17T18:55:21.042Z,8.70
2023-04-17T18:57:47.751Z,8.60
2023-04-17T19:00:14.494Z,8.50
2023-04-17T19:02:41.293Z,8.60
2023-04-17T19:05:08.324Z,8.40
2023-04-17T19:07:35.000Z,8.50
2023-04-17T19:10:01.681Z,8.40
2023-04-17T19:12:28.598Z,8.30
2023-04-17T19:14:57.158Z,8.40
2023-04-17T19:17:25.389Z,8.20
2023-04-17T19:19:52.159Z,8.20
2023-04-17T19:22:18.833Z,8.30
2023-04-17T19:24:49.801Z,8.10
2023-04-17T19:27:16.915Z,7.80
2023-04-17T19:29:43.681Z,8.10
2023-04-17T19:32:10.811Z,7.90
2023-04-17T19:34:38.038Z,7.80
2023-04-17T19:37:04.973Z,7.90
2023-04-17T19:39:31.680Z,7.90
2023-04-17T19:41:58.385Z,7.70
2023-04-17T19:44:27.318Z,7.80
2023-04-17T19:46:55.028Z,7.90
2023-04-17T19:49:21.718Z,7.90
2023-04-17T19:51:48.377Z,8.40
2023-04-17T19:54:15.949Z,7.90
2023-04-17T19:56:42.703Z,8.20
2023-04-17T19:59:12.547Z,7.90
2023-04-17T20:01:41.421Z,7.80
2023-04-17T20:04:10.034Z,7.90
2023-04-17T20:06:36.721Z,7.90
2023-04-17T20:09:04.730Z,7.90
2023-04-17T20:11:31.477Z,7.70
2023-04-17T20:13:58.139Z,7.70
2023-04-17T20:16:24.945Z,7.80
2023-04-17T20:18:56.505Z,7.50
2023-04-17T20:21:23.694Z,7.60
2023-04-17T20:23:50.343Z,7.50
2023-04-17T20:26:16.997Z,7.60
2023-04-17T20:28:43.731Z,7.30
2023-04-17T20:31:10.466Z,7.40
2023-04-17T20:33:37.242Z,7.20
2023-04-17T20:36:04.033Z,7.00
2023-04-17T20:38:30.655Z,7.00
2023-04-17T20:40:57.305Z,6.80
2023-04-17T20:43:23.953Z,6.60
2023-04-17T20:45:50.793Z,6.60
2023-04-17T20:48:17.593Z,6.50
2023-04-17T20:50:44.323Z,6.40
2023-04-17T20:53:10.970Z,6.20
2023-04-17T20:55:38.087Z,6.30
2023-04-17T20:58:04.796Z,6.30
2023-04-17T21:00:31.629Z,6.00
2023-04-17T21:02:58.326Z,6.20
2023-04-17T21:05:25.084Z,6.10
2023-04-17T21:07:51.865Z,6.10
2023-04-17T21:10:19.906Z,5.90
2023-04-17T21:12:47.028Z,5.90
2023-04-17T21:15:13.712Z,5.90
2023-04-17T21:17:40.432Z,5.80
2023-04-17T21:20:07.476Z,5.60
2023-04-17T21:22:34.148Z,5.60
2023-04-17T21:25:00.868Z,5.60
2023-04-17T21:27:27.532Z,5.50
2023-04-17T21:29:54.192Z,5.50
2023-04-17T21:32:20.961Z,5.40
2023-04-17T21:34:47.671Z,5.20
2023-04-17T21:37:14.306Z,5.20
2023-04-17T21:39:40.986Z,5.20
2023-04-17T21:42:09.753Z,5.20
2023-04-17T21:44:36.355Z,5.10
2023-04-17T21:47:03.022Z,5.00
2023-04-17T21:49:29.684Z,4.80
2023-04-17T21:51:56.686Z,4.80
2023-04-17T21:54:25.335Z,4.90
2023-04-17T21:56:52.074Z,5.00
2023-04-17T21:59:18.744Z,4.80
2023-04-17T22:01:45.457Z,4.70
2023-04-17T22:04:12.326Z,4.60
2023-04-17T22:06:39.130Z,4.50
2023-04-17T22:09:05.796Z,4.70
2023-04-17T22:11:32.500Z,4.60
2023-04-17T22:13:59.178Z,4.60
2023-04-17T22:16:25.887Z,4.60
2023-04-17T22:18:52.553Z,4.70
2023-04-17T22:21:19.228Z,4.70
2023-04-17T22:23:45.922Z,4.70
2023-04-17T22:26:12.550Z,4.50
2023-04-17T22:28:39.275Z,4.70
2023-04-17T22:31:05.988Z,4.90
2023-04-17T22:33:32.613Z,4.70
2023-04-17T22:36:00.097Z,4.80
2023-04-17T22:38:26.775Z,6.20
2023-04-17T22:40:54.668Z,4.90
2023-04-17T22:43:21.303Z,4.80
2023-04-17T22:45:47.918Z,4.90
2023-04-17T22:48:14.499Z,5.00
2023-04-17T22:50:41.263Z,5.10
2023-04-17T22:53:08.676Z,5.20
2023-04-17T22:55:36.043Z,5.40
2023-04-17T22:58:03.049Z,5.40
2023-04-17T23:00:30.438Z,5.40
2023-04-17T23:02:57.150Z,6.20
2023-04-17T23:05:23.984Z,5.30
2023-04-17T23:07:50.653Z,5.20
2023-04-17T23:10:17.458Z,5.20
2023-04-17T23:12:44.183Z,5.20
2023-04-17T23:15:10.873Z,5.10
2023-04-17T23:17:37.524Z,5.30
2023-04-17T23:20:04.464Z,5.30
2023-04-17T23:22:31.113Z,5.40
2023-04-17T23:24:57.742Z,5.30
2023-04-17T23:27:24.375Z,5.10
2023-04-17T23:29:51.111Z,5.00
2023-04-17T23:32:17.866Z,4.90
2023-04-17T23:34:44.562Z,5.00
2023-04-17T23:37:11.393Z,4.80
2023-04-17T23:39:37.962Z,4.80
2023-04-17T23:42:07.320Z,4.60
2023-04-17T23:44:36.994Z,4.70
2023-04-17T23:47:03.815Z,4.70
2023-04-17T23:49:30.643Z,4.50
2023-04-17T23:51:57.282Z,4.40
2023-04-17T23:54:23.942Z,4.30
2023-04-17T23:56:50.624Z,4.50
2023-04-17T23:59:17.361Z,4.40
